Terminal Aerodrome Forecast
Issued by NWS

Home | Current Version | Previous Version | Graphics & Text | Print | Product List | Glossary On
Versions: 1 2 3 4 5 6 7 8 9 10 11 12 13 14
521
FTUS42 KMHX 232335
TAFISO
TAF
KISO 232335Z 2400/2424 11005KT P6SM BKN250
     FM240600 00000KT 5SM BR SCT020
     FM240900 00000KT 3SM BR SCT020
      TEMPO 2409/2413 2SM BR
     FM241300 10005KT P6SM SCT035
      AMD LTD TO CLD VIS AND WIND=

USA.gov is the U.S. government's official web portal to all federal, state and local government web resources and services.